sensor_id;sensor_type;location;lat;lon;timestamp;pressure;altitude;pressure_sealevel;temperature;humidity
23733;BME280;12047;53.450;-2.286;2023-02-14T00:02:26;102718.50;;;11.58;100.00
23733;BME280;12047;53.450;-2.286;2023-02-14T00:07:26;102724.53;;;11.18;100.00
23733;BME280;12047;53.450;-2.286;2023-02-14T00:12:27;102718.13;;;10.48;100.00
23733;BME280;12047;53.450;-2.286;2023-02-14T00:17:27;102722.63;;;10.62;100.00
23733;BME280;12047;53.450;-2.286;2023-02-14T00:22:28;102708.91;;;9.76;100.00
23733;BME280;12047;53.450;-2.286;2023-02-14T00:27:29;102712.06;;;9.99;100.00
23733;BME280;12047;53.450;-2.286;2023-02-14T00:32:30;102711.97;;;11.50;100.00
23733;BME280;12047;53.450;-2.286;2023-02-14T00:37:31;102711.00;;;11.51;100.00
23733;BME280;12047;53.450;-2.286;2023-02-14T00:42:32;102702.22;;;11.36;100.00
23733;BME280;12047;53.450;-2.286;2023-02-14T00:47:32;102694.00;;;10.82;100.00
23733;BME280;12047;53.450;-2.286;2023-02-14T00:52:33;102705.97;;;11.04;100.00
23733;BME280;12047;53.450;-2.286;2023-02-14T00:57:33;102703.84;;;10.95;100.00
23733;BME280;12047;53.450;-2.286;2023-02-14T01:02:34;102706.66;;;10.77;100.00
23733;BME280;12047;53.450;-2.286;2023-02-14T01:07:35;102693.75;;;10.71;100.00
23733;BME280;12047;53.450;-2.286;2023-02-14T01:12:35;102694.28;;;10.16;100.00
23733;BME280;12047;53.450;-2.286;2023-02-14T01:17:36;102686.63;;;9.65;100.00
23733;BME280;12047;53.450;-2.286;2023-02-14T01:22:37;102685.25;;;9.89;100.00
23733;BME280;12047;53.450;-2.286;2023-02-14T01:27:38;102688.63;;;10.54;100.00
23733;BME280;12047;53.450;-2.286;2023-02-14T01:32:39;102684.53;;;10.93;100.00
23733;BME280;12047;53.450;-2.286;2023-02-14T01:37:39;102690.50;;;10.52;100.00
23733;BME280;12047;53.450;-2.286;2023-02-14T01:42:40;102681.06;;;10.32;100.00
23733;BME280;12047;53.450;-2.286;2023-02-14T01:47:42;102680.25;;;10.76;100.00
23733;BME280;12047;53.450;-2.286;2023-02-14T01:53:10;102671.84;;;9.28;100.00
23733;BME280;12047;53.450;-2.286;2023-02-14T01:58:19;102665.22;;;9.03;100.00
23733;BME280;12047;53.450;-2.286;2023-02-14T02:03:35;102668.34;;;9.76;100.00
23733;BME280;12047;53.450;-2.286;2023-02-14T02:08:42;102661.50;;;9.23;100.00
23733;BME280;12047;53.450;-2.286;2023-02-14T02:13:48;102653.91;;;9.17;100.00
23733;BME280;12047;53.450;-2.286;2023-02-14T02:24:13;102676.50;;;10.18;100.00
23733;BME280;12047;53.450;-2.286;2023-02-14T02:41:16;102687.13;;;9.71;100.00
23733;BME280;12047;53.450;-2.286;2023-02-14T02:46:04;102690.03;;;9.82;100.00
23733;BME280;12047;53.450;-2.286;2023-02-14T02:51:35;102685.41;;;9.54;100.00
23733;BME280;12047;53.450;-2.286;2023-02-14T02:57:00;102677.38;;;8.19;100.00
23733;BME280;12047;53.450;-2.286;2023-02-14T03:02:06;102671.63;;;8.82;100.00
23733;BME280;12047;53.450;-2.286;2023-02-14T03:07:11;102671.28;;;9.38;100.00
23733;BME280;12047;53.450;-2.286;2023-02-14T03:23:14;102664.25;;;8.37;100.00
23733;BME280;12047;53.450;-2.286;2023-02-14T03:33:42;102659.03;;;9.20;100.00
23733;BME280;12047;53.450;-2.286;2023-02-14T03:38:48;102652.13;;;8.50;100.00
23733;BME280;12047;53.450;-2.286;2023-02-14T03:43:58;102638.75;;;8.70;100.00
23733;BME280;12047;53.450;-2.286;2023-02-14T03:49:03;102625.78;;;9.32;100.00
23733;BME280;12047;53.450;-2.286;2023-02-14T03:54:17;102636.28;;;7.78;100.00
23733;BME280;12047;53.450;-2.286;2023-02-14T03:59:24;102632.00;;;8.47;100.00
23733;BME280;12047;53.450;-2.286;2023-02-14T04:04:28;102622.78;;;9.22;100.00
23733;BME280;12047;53.450;-2.286;2023-02-14T04:09:30;102638.59;;;8.73;100.00
23733;BME280;12047;53.450;-2.286;2023-02-14T04:14:31;102640.34;;;9.23;100.00
23733;BME280;12047;53.450;-2.286;2023-02-14T04:19:34;102638.38;;;9.11;100.00
23733;BME280;12047;53.450;-2.286;2023-02-14T04:24:35;102635.97;;;9.39;100.00
23733;BME280;12047;53.450;-2.286;2023-02-14T04:29:44;102647.09;;;8.96;100.00
23733;BME280;12047;53.450;-2.286;2023-02-14T04:34:46;102648.84;;;8.79;100.00
23733;BME280;12047;53.450;-2.286;2023-02-14T04:39:47;102638.72;;;7.26;100.00
23733;BME280;12047;53.450;-2.286;2023-02-14T04:44:48;102651.97;;;8.53;100.00
23733;BME280;12047;53.450;-2.286;2023-02-14T04:49:50;102662.31;;;8.40;100.00
23733;BME280;12047;53.450;-2.286;2023-02-14T04:54:54;102660.03;;;8.50;100.00
23733;BME280;12047;53.450;-2.286;2023-02-14T04:59:55;102652.59;;;8.58;100.00
23733;BME280;12047;53.450;-2.286;2023-02-14T05:04:55;102652.91;;;8.52;100.00
23733;BME280;12047;53.450;-2.286;2023-02-14T05:09:56;102651.03;;;7.26;100.00
23733;BME280;12047;53.450;-2.286;2023-02-14T05:14:57;102667.63;;;8.03;100.00
23733;BME280;12047;53.450;-2.286;2023-02-14T05:20:00;102657.13;;;6.46;100.00
23733;BME280;12047;53.450;-2.286;2023-02-14T05:25:01;102652.72;;;7.66;100.00
23733;BME280;12047;53.450;-2.286;2023-02-14T05:30:01;102661.47;;;8.57;100.00
23733;BME280;12047;53.450;-2.286;2023-02-14T05:35:03;102661.69;;;7.62;100.00
23733;BME280;12047;53.450;-2.286;2023-02-14T05:40:05;102673.72;;;8.22;100.00
23733;BME280;12047;53.450;-2.286;2023-02-14T05:45:08;102669.56;;;7.99;100.00
23733;BME280;12047;53.450;-2.286;2023-02-14T05:50:09;102665.38;;;6.39;100.00
23733;BME280;12047;53.450;-2.286;2023-02-14T05:55:11;102665.78;;;8.05;100.00
23733;BME280;12047;53.450;-2.286;2023-02-14T06:00:13;102672.41;;;8.32;100.00
23733;BME280;12047;53.450;-2.286;2023-02-14T06:05:14;102681.22;;;7.58;100.00
23733;BME280;12047;53.450;-2.286;2023-02-14T06:10:18;102682.44;;;8.24;100.00
23733;BME280;12047;53.450;-2.286;2023-02-14T06:15:19;102674.75;;;7.65;100.00
23733;BME280;12047;53.450;-2.286;2023-02-14T06:20:21;102672.75;;;7.12;100.00
23733;BME280;12047;53.450;-2.286;2023-02-14T06:25:25;102662.88;;;7.17;100.00
23733;BME280;12047;53.450;-2.286;2023-02-14T06:30:26;102679.47;;;8.13;100.00
23733;BME280;12047;53.450;-2.286;2023-02-14T06:35:27;102672.38;;;7.59;100.00
23733;BME280;12047;53.450;-2.286;2023-02-14T06:40:28;102680.38;;;7.76;100.00
23733;BME280;12047;53.450;-2.286;2023-02-14T06:45:28;102681.44;;;7.72;100.00
23733;BME280;12047;53.450;-2.286;2023-02-14T06:50:29;102677.38;;;7.65;100.00
23733;BME280;12047;53.450;-2.286;2023-02-14T06:55:30;102673.28;;;8.31;100.00
23733;BME280;12047;53.450;-2.286;2023-02-14T07:00:30;102674.69;;;8.02;100.00
23733;BME280;12047;53.450;-2.286;2023-02-14T07:05:31;102684.28;;;8.22;100.00
23733;BME280;12047;53.450;-2.286;2023-02-14T07:10:33;102679.97;;;8.02;100.00
23733;BME280;12047;53.450;-2.286;2023-02-14T07:15:34;102682.94;;;7.77;100.00
23733;BME280;12047;53.450;-2.286;2023-02-14T07:20:34;102683.69;;;7.98;100.00
23733;BME280;12047;53.450;-2.286;2023-02-14T07:25:38;102686.97;;;7.28;100.00
23733;BME280;12047;53.450;-2.286;2023-02-14T07:30:41;102685.13;;;8.05;100.00
23733;BME280;12047;53.450;-2.286;2023-02-14T07:35:42;102695.69;;;7.68;100.00
23733;BME280;12047;53.450;-2.286;2023-02-14T07:40:42;102702.69;;;7.69;100.00
23733;BME280;12047;53.450;-2.286;2023-02-14T07:45:43;102699.44;;;8.18;100.00
23733;BME280;12047;53.450;-2.286;2023-02-14T07:50:47;102695.03;;;7.44;100.00
23733;BME280;12047;53.450;-2.286;2023-02-14T07:55:50;102689.28;;;6.95;100.00
23733;BME280;12047;53.450;-2.286;2023-02-14T08:00:52;102695.41;;;8.11;100.00
23733;BME280;12047;53.450;-2.286;2023-02-14T08:05:52;102678.59;;;7.18;100.00
23733;BME280;12047;53.450;-2.286;2023-02-14T08:10:59;102690.56;;;8.19;100.00
23733;BME280;12047;53.450;-2.286;2023-02-14T08:15:59;102701.72;;;8.79;100.00
23733;BME280;12047;53.450;-2.286;2023-02-14T08:21:11;102690.69;;;8.89;100.00
23733;BME280;12047;53.450;-2.286;2023-02-14T08:26:12;102694.41;;;8.84;100.00
23733;BME280;12047;53.450;-2.286;2023-02-14T08:31:21;102698.03;;;8.99;100.00
23733;BME280;12047;53.450;-2.286;2023-02-14T08:36:23;102705.63;;;9.23;100.00
23733;BME280;12047;53.450;-2.286;2023-02-14T08:41:29;102696.47;;;9.45;100.00
23733;BME280;12047;53.450;-2.286;2023-02-14T08:46:30;102697.66;;;8.72;100.00
23733;BME280;12047;53.450;-2.286;2023-02-14T08:51:30;102692.13;;;9.11;100.00
23733;BME280;12047;53.450;-2.286;2023-02-14T08:56:31;102699.81;;;10.43;100.00
23733;BME280;12047;53.450;-2.286;2023-02-14T09:01:32;102700.34;;;10.94;100.00
23733;BME280;12047;53.450;-2.286;2023-02-14T09:06:38;102699.16;;;11.28;100.00
23733;BME280;12047;53.450;-2.286;2023-02-14T09:11:39;102691.94;;;11.02;100.00
23733;BME280;12047;53.450;-2.286;2023-02-14T09:16:39;102697.25;;;11.02;100.00
23733;BME280;12047;53.450;-2.286;2023-02-14T09:21:40;102696.03;;;10.63;100.00
23733;BME280;12047;53.450;-2.286;2023-02-14T09:26:41;102681.53;;;11.27;100.00
23733;BME280;12047;53.450;-2.286;2023-02-14T09:31:42;102680.88;;;11.09;100.00
23733;BME280;12047;53.450;-2.286;2023-02-14T09:36:43;102685.84;;;11.71;100.00
23733;BME280;12047;53.450;-2.286;2023-02-14T09:52:29;102688.84;;;12.07;100.00
23733;BME280;12047;53.450;-2.286;2023-02-14T10:03:54;102693.31;;;12.73;100.00
23733;BME280;12047;53.450;-2.286;2023-02-14T10:14:24;102700.31;;;12.62;100.00
23733;BME280;12047;53.450;-2.286;2023-02-14T10:24:43;102681.53;;;13.15;100.00
23733;BME280;12047;53.450;-2.286;2023-02-14T10:29:46;102696.63;;;13.15;100.00
23733;BME280;12047;53.450;-2.286;2023-02-14T10:34:49;102690.22;;;12.92;100.00
23733;BME280;12047;53.450;-2.286;2023-02-14T10:56:45;102682.91;;;13.59;100.00
23733;BME280;12047;53.450;-2.286;2023-02-14T11:01:50;102685.31;;;12.73;100.00
23733;BME280;12047;53.450;-2.286;2023-02-14T11:06:52;102670.97;;;14.12;100.00
23733;BME280;12047;53.450;-2.286;2023-02-14T11:11:55;102670.75;;;13.55;100.00
23733;BME280;12047;53.450;-2.286;2023-02-14T11:16:57;102673.06;;;13.96;100.00
23733;BME280;12047;53.450;-2.286;2023-02-14T11:21:59;102667.00;;;13.94;100.00
23733;BME280;12047;53.450;-2.286;2023-02-14T11:27:03;102663.16;;;13.98;100.00
23733;BME280;12047;53.450;-2.286;2023-02-14T11:32:11;102647.16;;;13.61;100.00
23733;BME280;12047;53.450;-2.286;2023-02-14T11:37:24;102640.00;;;13.75;100.00
23733;BME280;12047;53.450;-2.286;2023-02-14T11:42:46;102644.91;;;14.05;100.00
23733;BME280;12047;53.450;-2.286;2023-02-14T11:47:47;102638.81;;;14.61;100.00
23733;BME280;12047;53.450;-2.286;2023-02-14T11:52:53;102632.56;;;14.74;100.00
23733;BME280;12047;53.450;-2.286;2023-02-14T11:57:56;102635.69;;;14.56;100.00
23733;BME280;12047;53.450;-2.286;2023-02-14T12:02:59;102622.53;;;15.22;100.00
23733;BME280;12047;53.450;-2.286;2023-02-14T12:08:05;102633.22;;;15.00;100.00
23733;BME280;12047;53.450;-2.286;2023-02-14T12:23:42;102604.28;;;15.60;100.00
23733;BME280;12047;53.450;-2.286;2023-02-14T12:28:55;102609.41;;;15.30;100.00
23733;BME280;12047;53.450;-2.286;2023-02-14T12:34:05;102597.28;;;15.26;100.00
23733;BME280;12047;53.450;-2.286;2023-02-14T12:44:51;102585.22;;;15.97;100.00
23733;BME280;12047;53.450;-2.286;2023-02-14T12:50:28;102576.31;;;16.08;98.39
23733;BME280;12047;53.450;-2.286;2023-02-14T13:22:56;102546.09;;;16.79;94.23
23733;BME280;12047;53.450;-2.286;2023-02-14T13:28:02;102541.34;;;16.92;92.88
23733;BME280;12047;53.450;-2.286;2023-02-14T13:33:44;102541.59;;;17.20;93.74
23733;BME280;12047;53.450;-2.286;2023-02-14T13:38:53;102534.97;;;16.84;93.40
23733;BME280;12047;53.450;-2.286;2023-02-14T13:43:57;102523.06;;;16.97;93.40
23733;BME280;12047;53.450;-2.286;2023-02-14T13:49:06;102518.09;;;16.93;92.38
23733;BME280;12047;53.450;-2.286;2023-02-14T13:54:43;102524.63;;;17.00;91.67
23733;BME280;12047;53.450;-2.286;2023-02-14T14:00:34;102511.94;;;17.12;94.07
23733;BME280;12047;53.450;-2.286;2023-02-14T14:06:11;102498.31;;;17.34;92.61
23733;BME280;12047;53.450;-2.286;2023-02-14T14:16:36;102484.13;;;16.63;93.87
23733;BME280;12047;53.450;-2.286;2023-02-14T14:21:40;102486.38;;;16.88;93.11
23733;BME280;12047;53.450;-2.286;2023-02-14T14:26:57;102497.06;;;17.48;92.22
23733;BME280;12047;53.450;-2.286;2023-02-14T14:32:07;102487.06;;;16.81;89.29
23733;BME280;12047;53.450;-2.286;2023-02-14T14:37:16;102477.06;;;16.62;91.66
23733;BME280;12047;53.450;-2.286;2023-02-14T14:42:18;102472.97;;;17.86;90.16
23733;BME280;12047;53.450;-2.286;2023-02-14T14:47:44;102467.75;;;17.75;89.24
23733;BME280;12047;53.450;-2.286;2023-02-14T14:52:47;102467.84;;;17.16;90.90
23733;BME280;12047;53.450;-2.286;2023-02-14T14:57:51;102475.63;;;17.57;88.93
23733;BME280;12047;53.450;-2.286;2023-02-14T15:03:03;102476.41;;;17.10;90.46
23733;BME280;12047;53.450;-2.286;2023-02-14T15:13:38;102477.38;;;18.34;87.95
23733;BME280;12047;53.450;-2.286;2023-02-14T15:18:50;102464.28;;;18.21;88.48
23733;BME280;12047;53.450;-2.286;2023-02-14T15:23:54;102458.13;;;18.01;90.41
23733;BME280;12047;53.450;-2.286;2023-02-14T15:29:05;102462.81;;;17.71;92.31
23733;BME280;12047;53.450;-2.286;2023-02-14T15:34:06;102464.00;;;17.09;89.09
23733;BME280;12047;53.450;-2.286;2023-02-14T15:39:13;102450.91;;;17.34;87.92
23733;BME280;12047;53.450;-2.286;2023-02-14T15:44:24;102452.19;;;17.59;86.80
23733;BME280;12047;53.450;-2.286;2023-02-14T15:49:36;102446.84;;;17.50;85.83
23733;BME280;12047;53.450;-2.286;2023-02-14T15:54:54;102435.28;;;17.88;84.69
23733;BME280;12047;53.450;-2.286;2023-02-14T15:59:56;102430.03;;;17.96;83.46
23733;BME280;12047;53.450;-2.286;2023-02-14T16:16:14;102441.78;;;17.66;82.05
23733;BME280;12047;53.450;-2.286;2023-02-14T16:21:29;102449.00;;;17.75;81.97
23733;BME280;12047;53.450;-2.286;2023-02-14T16:26:38;102449.13;;;17.54;83.82
23733;BME280;12047;53.450;-2.286;2023-02-14T16:31:51;102432.88;;;17.37;83.65
23733;BME280;12047;53.450;-2.286;2023-02-14T16:36:56;102431.13;;;16.87;84.82
23733;BME280;12047;53.450;-2.286;2023-02-14T16:41:57;102434.19;;;16.43;87.13
23733;BME280;12047;53.450;-2.286;2023-02-14T16:47:11;102438.69;;;17.32;84.52
23733;BME280;12047;53.450;-2.286;2023-02-14T16:52:22;102439.25;;;17.26;85.91
23733;BME280;12047;53.450;-2.286;2023-02-14T16:57:48;102427.78;;;17.82;83.55
23733;BME280;12047;53.450;-2.286;2023-02-14T17:02:54;102418.06;;;17.61;84.33
23733;BME280;12047;53.450;-2.286;2023-02-14T17:08:09;102416.66;;;17.57;85.47
23733;BME280;12047;53.450;-2.286;2023-02-14T17:13:11;102418.31;;;16.81;90.87
23733;BME280;12047;53.450;-2.286;2023-02-14T17:18:14;102421.56;;;16.54;91.41
23733;BME280;12047;53.450;-2.286;2023-02-14T17:23:18;102433.84;;;16.26;93.90
23733;BME280;12047;53.450;-2.286;2023-02-14T17:28:20;102435.09;;;16.53;93.65
23733;BME280;12047;53.450;-2.286;2023-02-14T17:38:48;102428.09;;;16.31;93.70
23733;BME280;12047;53.450;-2.286;2023-02-14T17:49:52;102425.69;;;16.28;94.25
23733;BME280;12047;53.450;-2.286;2023-02-14T17:54:53;102415.47;;;15.71;97.23
23733;BME280;12047;53.450;-2.286;2023-02-14T17:59:53;102423.91;;;16.08;94.86
23733;BME280;12047;53.450;-2.286;2023-02-14T18:04:57;102422.47;;;16.04;95.35
23733;BME280;12047;53.450;-2.286;2023-02-14T18:58:15;102397.66;;;14.96;100.00
23733;BME280;12047;53.450;-2.286;2023-02-14T19:03:49;102391.56;;;14.06;100.00
23733;BME280;12047;53.450;-2.286;2023-02-14T19:09:21;102392.59;;;13.81;100.00
23733;BME280;12047;53.450;-2.286;2023-02-14T19:33:08;102386.50;;;14.48;100.00
23733;BME280;12047;53.450;-2.286;2023-02-14T19:38:43;102387.41;;;13.91;100.00
23733;BME280;12047;53.450;-2.286;2023-02-14T19:50:02;102382.59;;;13.02;100.00
23733;BME280;12047;53.450;-2.286;2023-02-14T19:55:37;102361.22;;;12.67;100.00
23733;BME280;12047;53.450;-2.286;2023-02-14T20:01:08;102359.16;;;12.10;100.00
23733;BME280;12047;53.450;-2.286;2023-02-14T20:06:35;102343.59;;;13.49;100.00
23733;BME280;12047;53.450;-2.286;2023-02-14T20:17:23;102340.06;;;14.06;100.00
23733;BME280;12047;53.450;-2.286;2023-02-14T20:34:34;102324.56;;;13.42;100.00
23733;BME280;12047;53.450;-2.286;2023-02-14T21:15:48;102309.47;;;12.60;100.00
23733;BME280;12047;53.450;-2.286;2023-02-14T21:39:34;102292.94;;;11.95;100.00
23733;BME280;12047;53.450;-2.286;2023-02-14T23:33:02;102240.56;;;10.41;100.00
23733;BME280;12047;53.450;-2.286;2023-02-14T23:38:11;102232.09;;;10.36;100.00
23733;BME280;12047;53.450;-2.286;2023-02-14T23:43:15;102224.00;;;10.65;100.00
23733;BME280;12047;53.450;-2.286;2023-02-14T23:48:16;102214.41;;;10.76;100.00
23733;BME280;12047;53.450;-2.286;2023-02-14T23:53:31;102215.41;;;11.39;100.00
23733;BME280;12047;53.450;-2.286;2023-02-14T23:58:32;102208.50;;;10.98;100.00
